createdAt,value
2022-11-19T00:04:15.178Z,22
2022-11-19T00:09:31.901Z,16
2022-11-19T00:14:48.341Z,15
2022-11-19T00:20:04.779Z,15
2022-11-19T00:25:21.237Z,17
2022-11-19T00:30:48.378Z,15
2022-11-19T00:35:54.219Z,16
2022-11-19T00:41:10.737Z,12
2022-11-19T00:46:27.873Z,13
2022-11-19T00:51:44.339Z,10
2022-11-19T00:57:01.167Z,10
2022-11-19T01:02:17.664Z,10
2022-11-19T01:07:34.164Z,12
2022-11-19T01:12:50.572Z,9
2022-11-19T01:18:06.989Z,10
2022-11-19T01:23:23.440Z,9
2022-11-19T01:28:39.842Z,9
2022-11-19T01:33:56.358Z,8
2022-11-19T01:39:12.807Z,9
2022-11-19T01:44:31.655Z,10
2022-11-19T01:49:46.435Z,8
2022-11-19T01:55:02.906Z,6
2022-11-19T02:00:19.355Z,7
2022-11-19T02:05:35.797Z,6
2022-11-19T02:10:52.289Z,8
2022-11-19T02:16:08.812Z,11
2022-11-19T02:21:25.275Z,8
2022-11-19T02:26:41.734Z,8
2022-11-19T02:31:58.231Z,6
2022-11-19T02:37:14.721Z,10
2022-11-19T02:42:31.138Z,7
2022-11-19T02:47:47.626Z,7
2022-11-19T02:53:04.125Z,8
2022-11-19T02:58:20.624Z,9
2022-11-19T03:03:37.106Z,9
2022-11-19T03:08:53.537Z,9
2022-11-19T03:14:10.759Z,9
2022-11-19T03:19:27.194Z,10
2022-11-19T03:24:43.657Z,10
2022-11-19T03:30:00.162Z,9
2022-11-19T03:35:16.536Z,8
2022-11-19T03:40:32.991Z,11
2022-11-19T03:45:49.462Z,9
2022-11-19T03:51:05.881Z,9
2022-11-19T03:56:22.381Z,8
2022-11-19T04:01:38.864Z,7
2022-11-19T04:06:55.493Z,8
2022-11-19T04:12:11.896Z,7
2022-11-19T04:17:29.055Z,8
2022-11-19T04:22:45.478Z,8
2022-11-19T04:28:01.906Z,11
2022-11-19T04:33:18.328Z,10
2022-11-19T04:38:34.755Z,8
2022-11-19T04:43:51.196Z,9
2022-11-19T04:49:07.674Z,12
2022-11-19T04:55:35.964Z,9
2022-11-19T05:00:52.408Z,8
2022-11-19T05:06:08.850Z,10
2022-11-19T05:11:25.289Z,10
2022-11-19T05:16:41.721Z,9
2022-11-19T05:21:58.201Z,9
2022-11-19T05:27:14.703Z,13
2022-11-19T05:32:31.145Z,13
2022-11-19T05:37:47.600Z,12
2022-11-19T05:43:04.066Z,12
2022-11-19T05:48:20.557Z,12
2022-11-19T05:53:37.035Z,12
2022-11-19T05:58:53.460Z,11
2022-11-19T06:04:09.883Z,13
2022-11-19T06:09:26.357Z,14
2022-11-19T06:14:42.818Z,12
2022-11-19T06:19:59.297Z,18
2022-11-19T06:25:16.493Z,18
2022-11-19T06:30:32.978Z,20
2022-11-19T06:35:49.453Z,14
2022-11-19T06:41:05.969Z,21
2022-11-19T06:46:22.469Z,21
2022-11-19T06:51:38.939Z,19
2022-11-19T06:56:55.368Z,15
2022-11-19T07:02:11.842Z,14
2022-11-19T07:07:28.435Z,16
2022-11-19T07:12:44.808Z,21
2022-11-19T07:18:03.347Z,22
2022-11-19T07:23:19.947Z,25
2022-11-19T07:28:36.236Z,26
2022-11-19T07:33:52.787Z,32
2022-11-19T07:39:09.280Z,34
2022-11-19T07:44:25.802Z,34
2022-11-19T07:49:42.023Z,36
2022-11-19T07:54:58.503Z,31
2022-11-19T08:00:16.025Z,37
2022-11-19T08:05:31.597Z,35
2022-11-19T08:10:48.050Z,34
2022-11-19T08:16:04.487Z,27
2022-11-19T08:21:20.989Z,22
2022-11-19T08:26:37.430Z,20
2022-11-19T08:31:53.883Z,20
2022-11-19T08:37:10.359Z,16
2022-11-19T08:42:26.799Z,17
2022-11-19T08:47:43.185Z,16
2022-11-19T08:52:59.625Z,15
2022-11-19T08:58:16.102Z,14
2022-11-19T09:03:32.571Z,8
2022-11-19T09:08:49.028Z,11
2022-11-19T09:14:05.477Z,9
2022-11-19T09:19:22.018Z,8
2022-11-19T09:24:38.377Z,10
2022-11-19T09:29:54.771Z,9
2022-11-19T09:35:11.251Z,12
2022-11-19T09:40:27.706Z,8
2022-11-19T09:45:44.077Z,8
2022-11-19T09:51:01.813Z,6
2022-11-19T09:56:18.246Z,7
2022-11-19T10:01:34.709Z,8
2022-11-19T10:06:51.129Z,8
2022-11-19T10:12:07.605Z,6
2022-11-19T10:17:24.040Z,6
2022-11-19T10:22:40.428Z,8
2022-11-19T10:27:56.870Z,6
2022-11-19T10:33:13.324Z,6
2022-11-19T10:38:29.767Z,5
2022-11-19T10:43:46.229Z,6
2022-11-19T10:49:02.611Z,6
2022-11-19T10:54:19.016Z,7
2022-11-19T10:59:35.479Z,5
2022-11-19T11:04:51.964Z,6
2022-11-19T11:10:08.386Z,4
2022-11-19T11:15:24.823Z,5
2022-11-19T11:20:41.216Z,6
2022-11-19T11:25:57.636Z,6
2022-11-19T11:31:14.029Z,5
2022-11-19T11:36:30.480Z,4
2022-11-19T11:42:05.306Z,3
2022-11-19T11:47:03.399Z,2
2022-11-19T11:52:19.840Z,2
2022-11-19T11:57:36.286Z,4
2022-11-19T12:02:52.670Z,4
2022-11-19T12:08:09.139Z,4
2022-11-19T12:13:25.523Z,3
2022-11-19T12:18:41.927Z,4
2022-11-19T12:23:58.356Z,3
2022-11-19T12:29:14.759Z,4
2022-11-19T12:34:31.133Z,2
2022-11-19T12:39:52.531Z,3
2022-11-19T12:45:09.001Z,3
2022-11-19T12:50:25.444Z,5
2022-11-19T12:55:41.828Z,3
2022-11-19T13:00:58.309Z,3
2022-11-19T13:06:17.856Z,3
2022-11-19T13:11:31.019Z,2
2022-11-19T13:16:47.461Z,4
2022-11-19T13:22:03.879Z,3
2022-11-19T13:27:22.983Z,3
2022-11-19T13:32:36.749Z,3
2022-11-19T13:37:58.319Z,2
2022-11-19T13:43:31.211Z,2
2022-11-19T13:48:25.960Z,3
2022-11-19T13:53:43.130Z,5
2022-11-19T13:58:59.630Z,4
2022-11-19T14:04:16.001Z,3
2022-11-19T14:09:32.437Z,3
2022-11-19T14:14:48.942Z,3
2022-11-19T14:20:05.484Z,4
2022-11-19T14:25:21.804Z,4
2022-11-19T14:30:38.263Z,5
2022-11-19T14:35:54.680Z,4
2022-11-19T14:41:11.084Z,4
2022-11-19T14:46:27.530Z,4
2022-11-19T14:51:43.935Z,5
2022-11-19T14:57:01.841Z,4
2022-11-19T15:02:18.343Z,7
2022-11-19T15:07:34.801Z,5
2022-11-19T15:12:51.180Z,3
2022-11-19T15:18:08.515Z,5
2022-11-19T15:23:24.099Z,4
2022-11-19T15:28:40.572Z,3
2022-11-19T15:33:56.991Z,5
2022-11-19T15:39:13.414Z,4
2022-11-19T15:44:30.589Z,5
2022-11-19T15:49:47.019Z,7
2022-11-19T15:55:03.489Z,6
2022-11-19T16:00:19.968Z,5
2022-11-19T16:05:36.388Z,5
2022-11-19T16:10:52.781Z,4
2022-11-19T16:16:09.197Z,5
2022-11-19T16:21:25.652Z,7
2022-11-19T16:26:42.153Z,7
2022-11-19T16:31:58.621Z,8
2022-11-19T16:37:15.187Z,7
2022-11-19T16:42:31.612Z,7
2022-11-19T16:47:48.063Z,10
2022-11-19T16:53:04.538Z,9
2022-11-19T16:58:20.941Z,7
2022-11-19T17:03:37.403Z,7
2022-11-19T17:08:53.831Z,7
2022-11-19T17:14:10.622Z,6
2022-11-19T17:19:28.534Z,8
2022-11-19T17:24:45.003Z,7
2022-11-19T17:30:01.928Z,5
2022-11-19T17:35:18.299Z,8
2022-11-19T17:40:34.864Z,7
2022-11-19T17:45:51.252Z,9
2022-11-19T17:51:07.695Z,11
2022-11-19T17:56:24.098Z,7
2022-11-19T18:01:40.520Z,5
2022-11-19T18:06:57.022Z,5
2022-11-19T18:12:13.421Z,7
2022-11-19T18:17:29.850Z,6
2022-11-19T18:22:46.803Z,5
2022-11-19T18:28:03.265Z,5
2022-11-19T18:33:19.736Z,4
2022-11-19T18:38:36.152Z,5
2022-11-19T18:43:52.571Z,4
2022-11-19T18:49:09.017Z,4
2022-11-19T18:54:25.400Z,4
2022-11-19T18:59:41.883Z,5
2022-11-19T19:04:58.325Z,7
2022-11-19T19:10:14.820Z,9
2022-11-19T19:15:31.254Z,9
2022-11-19T19:20:48.428Z,7
2022-11-19T19:26:04.903Z,8
2022-11-19T19:31:21.335Z,11
2022-11-19T19:36:37.789Z,14
2022-11-19T19:41:54.307Z,19
2022-11-19T19:47:10.755Z,16
2022-11-19T19:52:28.000Z,22
2022-11-19T19:57:44.415Z,19
2022-11-19T20:03:05.921Z,16
2022-11-19T20:08:22.397Z,14
2022-11-19T20:13:38.809Z,15
2022-11-19T20:18:55.321Z,14
2022-11-19T20:24:12.879Z,14
2022-11-19T20:29:28.717Z,16
2022-11-19T20:34:45.182Z,15
2022-11-19T20:40:06.595Z,16
2022-11-19T20:45:22.996Z,14
2022-11-19T20:50:39.453Z,12
2022-11-19T20:56:05.054Z,12
2022-11-19T21:01:12.369Z,11
2022-11-19T21:06:33.766Z,8
2022-11-19T21:11:50.248Z,6
2022-11-19T21:17:06.702Z,6
2022-11-19T21:22:23.136Z,7
2022-11-19T21:27:39.603Z,7
2022-11-19T21:32:56.072Z,11
2022-11-19T21:38:12.653Z,7
2022-11-19T21:43:29.047Z,8
2022-11-19T21:48:45.524Z,9
2022-11-19T21:54:01.967Z,5
2022-11-19T21:59:18.749Z,5
2022-11-19T22:04:34.880Z,4
2022-11-19T22:09:51.313Z,3
2022-11-19T22:15:07.797Z,4
2022-11-19T22:20:24.266Z,3
2022-11-19T22:25:40.697Z,2
2022-11-19T22:30:57.176Z,2
2022-11-19T22:36:13.612Z,3
2022-11-19T22:41:30.067Z,2
2022-11-19T22:46:46.489Z,1
2022-11-19T22:52:03.291Z,1
2022-11-19T22:57:20.537Z,3
2022-11-19T23:02:36.909Z,3
2022-11-19T23:07:53.370Z,1
2022-11-19T23:13:09.829Z,5
2022-11-19T23:18:26.276Z,4
2022-11-19T23:23:42.666Z,4
2022-11-19T23:28:59.146Z,3
2022-11-19T23:34:15.619Z,3
2022-11-19T23:39:32.047Z,1
2022-11-19T23:44:48.464Z,2
2022-11-19T23:50:04.904Z,2
2022-11-19T23:55:21.363Z,1
